createdAt,value
2019-03-02T00:00:14.408Z,19.15
2019-03-02T00:01:14.709Z,19.16
2019-03-02T00:02:14.377Z,19.16
2019-03-02T00:03:14.417Z,19.18
2019-03-02T00:04:14.624Z,19.16
2019-03-02T00:05:14.342Z,19.15
2019-03-02T00:06:14.448Z,19.15
2019-03-02T00:07:14.773Z,19.15
2019-03-02T00:08:14.442Z,19.15
2019-03-02T00:09:14.521Z,19.15
2019-03-02T00:10:14.287Z,19.15
2019-03-02T00:11:14.415Z,19.12
2019-03-02T00:12:14.432Z,19.13
2019-03-02T00:13:14.278Z,19.13
2019-03-02T00:14:20.093Z,19.11
2019-03-02T00:15:14.605Z,19.12
2019-03-02T00:16:14.291Z,19.11
2019-03-02T00:17:20.416Z,19.12
2019-03-02T00:18:14.449Z,19.08
2019-03-02T00:19:14.327Z,19.08
2019-03-02T00:20:19.501Z,19.09
2019-03-02T00:21:14.456Z,19.11
2019-03-02T00:22:14.206Z,19.09
2019-03-02T00:23:19.970Z,19.08
2019-03-02T00:24:14.450Z,19.08
2019-03-02T00:25:14.253Z,19.06
2019-03-02T00:26:14.414Z,19.05
2019-03-02T00:27:14.366Z,19.06
2019-03-02T00:28:14.232Z,19.08
2019-03-02T00:29:14.378Z,19.05
2019-03-02T00:30:22.354Z,19.05
2019-03-02T00:31:14.537Z,19.06
2019-03-02T00:32:14.301Z,19.06
2019-03-02T00:33:21.311Z,19.03
2019-03-02T00:34:14.490Z,19.02
2019-03-02T00:35:14.306Z,19.03
2019-03-02T00:36:20.362Z,19.02
2019-03-02T00:37:14.527Z,19.02
2019-03-02T00:38:14.314Z,19.03
2019-03-02T00:39:20.159Z,19.03
2019-03-02T00:40:14.498Z,19.05
2019-03-02T00:41:14.339Z,19.02
2019-03-02T00:42:18.007Z,19.03
2019-03-02T00:43:14.488Z,19.02
2019-03-02T00:44:14.307Z,19.02
2019-03-02T00:45:15.765Z,18.99
2019-03-02T00:46:14.583Z,18.99
2019-03-02T00:47:14.343Z,18.98
2019-03-02T00:48:14.354Z,18.99
2019-03-02T00:49:14.495Z,18.99
2019-03-02T00:50:14.368Z,18.99
2019-03-02T00:51:14.428Z,18.99
2019-03-02T00:52:14.436Z,18.98
2019-03-02T00:53:14.320Z,18.99
2019-03-02T00:54:14.328Z,18.99
2019-03-02T00:55:14.423Z,18.97
2019-03-02T00:56:14.276Z,18.98
2019-03-02T00:57:19.809Z,18.97
2019-03-02T00:58:14.523Z,18.98
2019-03-02T00:59:14.317Z,18.97
2019-03-02T01:00:16.637Z,18.95
2019-03-02T01:01:14.488Z,18.97
2019-03-02T01:02:14.225Z,18.95
2019-03-02T01:03:17.087Z,18.97
2019-03-02T01:04:14.464Z,18.97
2019-03-02T01:05:14.236Z,18.94
2019-03-02T01:06:14.261Z,18.94
2019-03-02T01:07:14.451Z,18.92
2019-03-02T01:08:14.256Z,18.94
2019-03-02T01:09:14.299Z,18.94
2019-03-02T01:10:14.471Z,18.94
2019-03-02T01:11:14.347Z,18.91
2019-03-02T01:12:14.458Z,18.92
2019-03-02T01:13:23.282Z,18.94
2019-03-02T01:14:14.265Z,18.92
2019-03-02T01:15:14.331Z,18.9
2019-03-02T01:16:21.246Z,18.9
2019-03-02T01:17:14.229Z,18.91
2019-03-02T01:18:14.324Z,18.92
2019-03-02T01:19:18.620Z,18.91
2019-03-02T01:20:14.461Z,18.92
2019-03-02T01:21:14.389Z,18.9
2019-03-02T01:22:17.630Z,18.87
2019-03-02T01:23:14.845Z,18.9
2019-03-02T01:24:14.254Z,18.91
2019-03-02T01:25:14.730Z,18.87
2019-03-02T01:26:14.447Z,18.91
2019-03-02T01:27:14.412Z,18.87
2019-03-02T01:28:14.386Z,18.88
2019-03-02T01:29:20.623Z,18.88
2019-03-02T01:30:14.471Z,18.9
2019-03-02T01:31:14.390Z,18.87
2019-03-02T01:32:17.699Z,18.9
2019-03-02T01:33:14.285Z,18.9
2019-03-02T01:34:14.566Z,18.9
2019-03-02T01:35:21.901Z,18.87
2019-03-02T01:36:14.220Z,18.87
2019-03-02T01:37:14.310Z,18.84
2019-03-02T01:38:19.796Z,18.84
2019-03-02T01:39:14.252Z,18.83
2019-03-02T01:40:14.417Z,18.84
2019-03-02T01:41:19.290Z,18.84
2019-03-02T01:42:14.250Z,18.84
2019-03-02T01:43:14.353Z,18.83
2019-03-02T01:44:17.773Z,18.87
2019-03-02T01:45:14.234Z,18.83
2019-03-02T01:46:14.565Z,18.81
2019-03-02T01:47:17.193Z,18.81
2019-03-02T01:48:14.358Z,18.83
2019-03-02T01:49:14.358Z,18.81
2019-03-02T01:50:14.421Z,18.81
2019-03-02T01:51:14.268Z,18.81
2019-03-02T01:52:14.431Z,18.8
2019-03-02T01:53:14.391Z,18.81
2019-03-02T01:54:14.216Z,18.81
2019-03-02T01:55:14.325Z,18.81
2019-03-02T01:56:14.361Z,18.83
2019-03-02T01:57:18.181Z,18.81
2019-03-02T01:58:14.347Z,18.8
2019-03-02T01:59:14.614Z,18.83
2019-03-02T02:00:14.857Z,18.8
2019-03-02T02:01:14.363Z,18.81
2019-03-02T02:02:14.343Z,18.8
2019-03-02T02:03:14.201Z,18.8
2019-03-02T02:04:14.370Z,18.78
2019-03-02T02:05:14.434Z,18.8
2019-03-02T02:06:14.174Z,18.8
2019-03-02T02:07:19.562Z,18.8
2019-03-02T02:08:14.357Z,18.78
2019-03-02T02:09:14.334Z,18.78
2019-03-02T02:10:14.445Z,18.78
2019-03-02T02:11:19.180Z,18.77
2019-03-02T02:12:14.219Z,18.77
2019-03-02T02:13:14.284Z,18.77
2019-03-02T02:14:20.126Z,18.8
2019-03-02T02:15:14.201Z,18.78
2019-03-02T02:16:14.371Z,18.78
2019-03-02T02:17:18.914Z,18.78
2019-03-02T02:18:14.222Z,18.77
2019-03-02T02:19:14.366Z,18.75
2019-03-02T02:20:15.683Z,18.75
2019-03-02T02:21:14.491Z,18.75
2019-03-02T02:22:14.277Z,18.78
2019-03-02T02:23:14.398Z,18.75
2019-03-02T02:24:14.521Z,18.78
2019-03-02T02:25:14.293Z,18.74
2019-03-02T02:26:14.493Z,18.75
2019-03-02T02:27:14.562Z,18.74
2019-03-02T02:28:14.319Z,18.77
2019-03-02T02:29:14.363Z,18.75
2019-03-02T02:30:27.764Z,18.71
2019-03-02T02:31:14.334Z,18.75
2019-03-02T02:32:25.836Z,18.75
2019-03-02T02:33:14.451Z,18.73
2019-03-02T02:34:24.045Z,18.75
2019-03-02T02:35:14.185Z,18.74
2019-03-02T02:36:20.723Z,18.74
2019-03-02T02:37:14.397Z,18.75
2019-03-02T02:38:17.881Z,18.73
2019-03-02T02:39:14.437Z,18.73
2019-03-02T02:40:14.474Z,18.73
2019-03-02T02:41:25.435Z,18.74
2019-03-02T02:42:14.304Z,18.71
2019-03-02T02:43:22.603Z,18.73
2019-03-02T02:44:14.235Z,18.73
2019-03-02T02:45:17.039Z,18.7
2019-03-02T02:46:14.405Z,18.71
2019-03-02T02:47:14.380Z,18.73
2019-03-02T02:48:14.320Z,18.71
2019-03-02T02:49:14.406Z,18.7
2019-03-02T02:50:14.260Z,18.71
2019-03-02T02:51:14.375Z,18.71
2019-03-02T02:52:14.383Z,18.68
2019-03-02T02:53:14.240Z,18.7
2019-03-02T02:54:24.567Z,18.7
2019-03-02T02:55:14.405Z,18.68
2019-03-02T02:56:21.647Z,18.68
2019-03-02T02:57:14.350Z,18.71
2019-03-02T02:58:19.662Z,18.67
2019-03-02T02:59:14.500Z,18.71
2019-03-02T03:00:18.041Z,18.7
2019-03-02T03:01:14.356Z,18.7
2019-03-02T03:02:14.471Z,18.67
2019-03-02T03:03:22.810Z,18.67
2019-03-02T03:04:14.352Z,18.64
2019-03-02T03:05:17.838Z,18.67
2019-03-02T03:06:14.378Z,18.66
2019-03-02T03:07:14.669Z,18.67
2019-03-02T03:08:14.434Z,18.66
2019-03-02T03:09:14.343Z,18.64
2019-03-02T03:10:14.313Z,18.66
2019-03-02T03:11:14.440Z,18.66
2019-03-02T03:12:25.112Z,18.66
2019-03-02T03:13:14.298Z,18.66
2019-03-02T03:14:21.766Z,18.66
2019-03-02T03:15:14.584Z,18.63
2019-03-02T03:16:18.240Z,18.64
2019-03-02T03:17:14.485Z,18.62
2019-03-02T03:18:15.691Z,18.64
2019-03-02T03:19:14.349Z,18.62
2019-03-02T03:20:14.424Z,18.64
2019-03-02T03:21:14.241Z,18.64
2019-03-02T03:22:14.398Z,18.63
2019-03-02T03:23:14.398Z,18.63
2019-03-02T03:24:14.250Z,18.62
2019-03-02T03:25:19.784Z,18.62
2019-03-02T03:26:14.367Z,18.62
2019-03-02T03:27:15.063Z,18.63
2019-03-02T03:28:14.239Z,18.62
2019-03-02T03:29:14.408Z,18.63
2019-03-02T03:30:14.227Z,18.6
2019-03-02T03:31:32.058Z,18.63
2019-03-02T03:32:14.436Z,18.58
2019-03-02T03:33:14.539Z,18.6
2019-03-02T03:34:32.661Z,18.58
2019-03-02T03:35:20.660Z,18.62
2019-03-02T03:36:15.489Z,18.58
2019-03-02T03:37:15.393Z,18.58
2019-03-02T03:38:14.309Z,18.58
2019-03-02T03:39:14.345Z,18.6
2019-03-02T03:40:14.212Z,18.6
2019-03-02T03:41:14.359Z,18.57
2019-03-02T03:42:25.060Z,18.57
2019-03-02T03:43:14.493Z,18.58
2019-03-02T03:44:28.007Z,18.58
2019-03-02T03:45:14.268Z,18.58
2019-03-02T03:46:24.131Z,18.57
2019-03-02T03:47:14.254Z,18.57
2019-03-02T03:48:19.647Z,18.58
2019-03-02T03:49:14.487Z,18.58
2019-03-02T03:50:16.158Z,18.56
2019-03-02T03:51:14.286Z,18.57
2019-03-02T03:52:14.367Z,18.56
2019-03-02T03:53:14.376Z,18.56
2019-03-02T03:54:14.303Z,18.56
2019-03-02T03:55:27.913Z,18.54
2019-03-02T03:56:14.275Z,18.54
2019-03-02T03:57:23.118Z,18.54
2019-03-02T03:58:14.671Z,18.57
2019-03-02T03:59:20.904Z,18.54
2019-03-02T04:00:14.222Z,18.54
2019-03-02T04:01:19.476Z,18.53
2019-03-02T04:02:14.406Z,18.54
2019-03-02T04:03:15.308Z,18.51
2019-03-02T04:04:14.347Z,18.53
2019-03-02T04:05:14.350Z,18.51
2019-03-02T04:06:14.247Z,18.54
2019-03-02T04:07:14.321Z,18.54
2019-03-02T04:08:14.411Z,18.53
2019-03-02T04:09:14.358Z,18.53
2019-03-02T04:10:14.415Z,18.53
2019-03-02T04:11:14.377Z,18.53
2019-03-02T04:12:14.309Z,18.51
2019-03-02T04:13:14.394Z,18.5
2019-03-02T04:14:25.041Z,18.53
2019-03-02T04:15:14.182Z,18.51
2019-03-02T04:16:23.319Z,18.51
2019-03-02T04:17:14.341Z,18.51
2019-03-02T04:18:17.773Z,18.51
2019-03-02T04:19:14.388Z,18.51
2019-03-02T04:20:14.673Z,18.5
2019-03-02T04:21:14.353Z,18.5
2019-03-02T04:22:14.306Z,18.5
2019-03-02T04:23:23.607Z,18.5
2019-03-02T04:24:14.463Z,18.5
2019-03-02T04:25:19.855Z,18.5
2019-03-02T04:26:14.263Z,18.5
2019-03-02T04:27:17.353Z,18.51
2019-03-02T04:28:14.273Z,18.51
2019-03-02T04:29:14.322Z,18.5
2019-03-02T04:30:14.450Z,18.5
2019-03-02T04:31:14.217Z,18.5
2019-03-02T04:32:14.222Z,18.47
2019-03-02T04:33:14.423Z,18.5
2019-03-02T04:34:23.171Z,18.47
2019-03-02T04:35:14.234Z,18.47
2019-03-02T04:36:14.382Z,18.47
2019-03-02T04:37:14.106Z,18.5
2019-03-02T04:38:14.248Z,18.47
2019-03-02T04:39:15.295Z,18.49
2019-03-02T04:40:14.393Z,18.47
2019-03-02T04:41:14.223Z,18.47
2019-03-02T04:42:15.678Z,18.49
2019-03-02T04:43:14.374Z,18.47
2019-03-02T04:44:14.210Z,18.47
2019-03-02T04:45:14.277Z,18.49
2019-03-02T04:46:16.850Z,18.47
2019-03-02T04:47:14.164Z,18.47
2019-03-02T04:48:14.346Z,18.47
2019-03-02T04:49:15.755Z,18.46
2019-03-02T04:50:14.208Z,18.47
2019-03-02T04:51:14.407Z,18.49
2019-03-02T04:52:15.593Z,18.46
2019-03-02T04:53:14.168Z,18.47
2019-03-02T04:54:14.331Z,18.47
2019-03-02T04:55:15.067Z,18.47
2019-03-02T04:56:14.193Z,18.49
2019-03-02T04:57:14.322Z,18.5
2019-03-02T04:58:14.386Z,18.5
2019-03-02T04:59:14.321Z,18.54
2019-03-02T05:00:14.369Z,18.53
2019-03-02T05:01:14.381Z,18.57
2019-03-02T05:02:20.719Z,18.58
2019-03-02T05:03:14.518Z,18.62
2019-03-02T05:04:14.326Z,18.63
2019-03-02T05:05:14.265Z,18.64
2019-03-02T05:06:20.112Z,18.66
2019-03-02T05:07:14.521Z,18.66
2019-03-02T05:08:14.168Z,18.68
2019-03-02T05:09:18.131Z,18.68
2019-03-02T05:10:14.320Z,18.74
2019-03-02T05:11:14.179Z,18.74
2019-03-02T05:12:15.695Z,18.77
2019-03-02T05:13:14.349Z,18.78
2019-03-02T05:14:14.165Z,18.8
2019-03-02T05:15:17.861Z,18.81
2019-03-02T05:16:14.337Z,18.83
2019-03-02T05:17:14.330Z,18.87
2019-03-02T05:18:19.104Z,18.88
2019-03-02T05:19:14.284Z,18.88
2019-03-02T05:20:14.193Z,18.9
2019-03-02T05:21:14.257Z,18.91
2019-03-02T05:22:19.950Z,18.94
2019-03-02T05:23:14.155Z,18.92
2019-03-02T05:24:14.465Z,18.95
2019-03-02T05:25:20.367Z,18.99
2019-03-02T05:26:14.171Z,18.99
2019-03-02T05:27:14.338Z,19.01
2019-03-02T05:28:14.394Z,19.01
2019-03-02T05:29:18.682Z,19.02
2019-03-02T05:30:14.243Z,19.05
2019-03-02T05:31:14.274Z,19.03
2019-03-02T05:32:16.956Z,19.08
2019-03-02T05:33:14.294Z,19.06
2019-03-02T05:34:14.359Z,19.11
2019-03-02T05:35:17.087Z,19.11
2019-03-02T05:36:14.280Z,19.12
2019-03-02T05:37:14.432Z,19.12
2019-03-02T05:38:16.296Z,19.15
2019-03-02T05:39:18.231Z,19.12
2019-03-02T05:40:14.447Z,19.18
2019-03-02T05:41:14.144Z,19.18
2019-03-02T05:42:14.806Z,19.2
2019-03-02T05:43:14.278Z,19.22
2019-03-02T05:44:14.151Z,19.23
2019-03-02T05:45:14.405Z,19.23
2019-03-02T05:46:14.437Z,19.26
2019-03-02T05:47:14.205Z,19.26
2019-03-02T05:48:14.283Z,19.26
2019-03-02T05:49:19.645Z,19.3
2019-03-02T05:50:14.425Z,19.3
2019-03-02T05:51:14.318Z,19.3
2019-03-02T05:52:18.941Z,19.32
2019-03-02T05:53:14.129Z,19.35
2019-03-02T05:54:14.303Z,19.36
2019-03-02T05:55:19.378Z,19.37
2019-03-02T05:56:14.266Z,19.37
2019-03-02T05:57:14.273Z,19.4
2019-03-02T05:58:17.357Z,19.4
2019-03-02T05:59:14.177Z,19.43
2019-03-02T06:00:14.288Z,19.45
2019-03-02T06:01:14.342Z,19.45
2019-03-02T06:02:18.403Z,19.46
2019-03-02T06:03:14.309Z,19.45
2019-03-02T06:04:14.446Z,19.49
2019-03-02T06:05:14.175Z,19.47
2019-03-02T06:06:14.255Z,19.47
2019-03-02T06:07:14.764Z,19.5
2019-03-02T06:08:14.249Z,19.53
2019-03-02T06:09:15.105Z,19.52
2019-03-02T06:10:14.370Z,19.53
2019-03-02T06:11:14.104Z,19.54
2019-03-02T06:12:16.540Z,19.56
2019-03-02T06:13:14.313Z,19.53
2019-03-02T06:14:14.237Z,19.57
2019-03-02T06:15:14.271Z,19.58
2019-03-02T06:16:23.074Z,19.58
2019-03-02T06:17:14.115Z,19.58
2019-03-02T06:18:14.253Z,19.64
2019-03-02T06:19:24.351Z,19.63
2019-03-02T06:20:14.247Z,19.61
2019-03-02T06:21:14.256Z,19.64
2019-03-02T06:22:22.055Z,19.61
2019-03-02T06:23:14.095Z,19.64
2019-03-02T06:24:15.722Z,19.64
2019-03-02T06:25:23.462Z,19.65
2019-03-02T06:26:14.404Z,19.67
2019-03-02T06:27:14.254Z,19.7
2019-03-02T06:28:14.551Z,19.7
2019-03-02T06:29:14.781Z,19.7
2019-03-02T06:30:14.222Z,19.68
2019-03-02T06:31:20.235Z,19.71
2019-03-02T06:32:14.376Z,19.74
2019-03-02T06:33:14.192Z,19.71
2019-03-02T06:34:20.841Z,19.74
2019-03-02T06:35:14.572Z,19.71
2019-03-02T06:36:14.152Z,19.71
2019-03-02T06:37:20.990Z,19.73
2019-03-02T06:38:14.275Z,19.75
2019-03-02T06:39:14.223Z,19.75
2019-03-02T06:40:23.974Z,19.74
2019-03-02T06:41:14.272Z,19.75
2019-03-02T06:42:14.155Z,19.78
2019-03-02T06:43:14.226Z,19.75
2019-03-02T06:44:14.247Z,19.75
2019-03-02T06:45:14.157Z,19.78
2019-03-02T06:46:23.695Z,19.8
2019-03-02T06:47:14.297Z,19.8
2019-03-02T06:48:14.138Z,19.8
2019-03-02T06:49:21.369Z,19.8
2019-03-02T06:50:14.300Z,19.8
2019-03-02T06:51:14.075Z,19.84
2019-03-02T06:52:14.149Z,19.84
2019-03-02T06:53:14.308Z,19.82
2019-03-02T06:54:14.395Z,19.85
2019-03-02T06:55:14.187Z,19.85
2019-03-02T06:56:16.058Z,19.86
2019-03-02T06:57:15.251Z,19.85
2019-03-02T06:58:14.126Z,19.88
2019-03-02T06:59:14.236Z,19.86
2019-03-02T07:00:15.190Z,19.85
2019-03-02T07:01:14.096Z,19.88
2019-03-02T07:02:14.307Z,19.86
2019-03-02T07:03:14.345Z,19.88
2019-03-02T07:04:23.313Z,19.89
2019-03-02T07:05:14.328Z,19.89
2019-03-02T07:06:14.448Z,19.91
2019-03-02T07:07:14.097Z,19.89
2019-03-02T07:08:14.279Z,19.92
2019-03-02T07:09:14.339Z,19.91
2019-03-02T07:10:20.941Z,19.91
2019-03-02T07:11:14.297Z,19.91
2019-03-02T07:12:14.418Z,19.93
2019-03-02T07:13:14.169Z,19.95
2019-03-02T07:14:16.384Z,19.92
2019-03-02T07:15:14.284Z,19.93
2019-03-02T07:16:20.949Z,19.93
2019-03-02T07:17:14.258Z,19.95
2019-03-02T07:18:14.329Z,19.95
2019-03-02T07:19:17.930Z,19.95
2019-03-02T07:20:14.232Z,19.96
2019-03-02T07:21:14.417Z,19.96
2019-03-02T07:22:18.271Z,19.99
2019-03-02T07:23:14.215Z,19.95
2019-03-02T07:24:14.373Z,19.96
2019-03-02T07:25:14.932Z,19.99
2019-03-02T07:26:21.133Z,19.98
2019-03-02T07:27:14.310Z,19.99
2019-03-02T07:28:14.223Z,19.98
2019-03-02T07:29:18.923Z,19.98
2019-03-02T07:30:14.278Z,19.98
2019-03-02T07:31:14.085Z,20.01
2019-03-02T07:32:14.208Z,19.99
2019-03-02T07:33:14.398Z,19.99
2019-03-02T07:34:14.415Z,20.01
2019-03-02T07:35:20.842Z,20.02
2019-03-02T07:36:14.349Z,20.01
2019-03-02T07:37:14.078Z,20.01
2019-03-02T07:38:21.841Z,20.01
2019-03-02T07:39:14.237Z,20.02
2019-03-02T07:40:14.104Z,20.04
2019-03-02T07:41:14.181Z,20.02
2019-03-02T07:42:14.248Z,20.04
2019-03-02T07:43:14.123Z,20.02
2019-03-02T07:44:14.203Z,20.04
2019-03-02T07:45:14.370Z,20.04
2019-03-02T07:46:14.174Z,20.01
2019-03-02T07:47:14.168Z,20.04
2019-03-02T07:48:14.325Z,20.07
2019-03-02T07:49:14.588Z,20.07
2019-03-02T07:50:14.191Z,20.05
2019-03-02T07:51:14.213Z,20.08
2019-03-02T07:52:18.739Z,20.09
2019-03-02T07:53:14.252Z,20.09
2019-03-02T07:54:14.236Z,20.08
2019-03-02T07:55:22.778Z,20.09
2019-03-02T07:56:14.241Z,20.09
2019-03-02T07:57:14.174Z,20.09
2019-03-02T07:58:21.041Z,20.12
2019-03-02T07:59:14.155Z,20.11
2019-03-02T08:00:14.124Z,20.11
2019-03-02T08:01:18.033Z,20.12
2019-03-02T08:02:14.141Z,20.12
2019-03-02T08:03:14.176Z,20.12
2019-03-02T08:04:14.338Z,20.13
2019-03-02T08:05:15.608Z,20.12
2019-03-02T08:06:14.272Z,20.11
2019-03-02T08:07:14.085Z,20.12
2019-03-02T08:08:15.236Z,20.12
2019-03-02T08:09:14.198Z,20.15
2019-03-02T08:10:14.097Z,20.13
2019-03-02T08:11:14.554Z,20.12
2019-03-02T08:12:14.397Z,20.13
2019-03-02T08:13:14.164Z,20.15
2019-03-02T08:14:16.397Z,20.12
2019-03-02T08:15:14.206Z,20.13
2019-03-02T08:16:14.512Z,20.15
2019-03-02T08:17:14.682Z,20.13
2019-03-02T08:18:14.561Z,20.13
2019-03-02T08:19:14.209Z,20.12
2019-03-02T08:20:16.536Z,20.12
2019-03-02T08:21:14.336Z,20.15
2019-03-02T08:22:14.128Z,20.12
2019-03-02T08:23:14.908Z,20.13
2019-03-02T08:24:14.385Z,20.13
2019-03-02T08:25:14.087Z,20.13
2019-03-02T08:26:14.242Z,20.13
2019-03-02T08:27:14.213Z,20.13
2019-03-02T08:28:14.094Z,20.16
2019-03-02T08:29:14.210Z,20.15
2019-03-02T08:30:14.263Z,20.15
2019-03-02T08:31:14.190Z,20.13
2019-03-02T08:32:14.169Z,20.15
2019-03-02T08:33:14.310Z,20.15
2019-03-02T08:34:14.166Z,20.12
2019-03-02T08:35:14.201Z,20.15
2019-03-02T08:36:18.493Z,20.13
2019-03-02T08:37:14.205Z,20.13
2019-03-02T08:38:14.334Z,20.16
2019-03-02T08:39:14.953Z,20.15
2019-03-02T08:40:14.080Z,20.15
2019-03-02T08:41:14.175Z,20.13
2019-03-02T08:42:14.331Z,20.16
2019-03-02T08:43:17.422Z,20.13
2019-03-02T08:44:20.063Z,20.16
2019-03-02T08:45:14.238Z,20.13
2019-03-02T08:46:14.014Z,20.16
2019-03-02T08:47:14.222Z,20.15
2019-03-02T08:48:14.606Z,20.16
2019-03-02T08:49:14.066Z,20.16
2019-03-02T08:50:19.207Z,20.16
2019-03-02T08:51:14.387Z,20.16
2019-03-02T08:52:14.103Z,20.15
2019-03-02T08:53:14.230Z,20.18
2019-03-02T08:54:14.279Z,20.18
2019-03-02T08:55:14.104Z,20.18
2019-03-02T08:56:14.167Z,20.16
2019-03-02T08:57:14.438Z,20.18
2019-03-02T08:58:14.146Z,20.16
2019-03-02T08:59:14.226Z,20.15
2019-03-02T09:00:14.175Z,20.19
2019-03-02T09:01:19.990Z,20.18
2019-03-02T09:02:14.264Z,20.18
2019-03-02T09:03:14.020Z,20.16
2019-03-02T09:04:15.333Z,20.18
2019-03-02T09:05:14.250Z,20.15
2019-03-02T09:06:14.056Z,20.18
2019-03-02T09:07:14.110Z,20.13
2019-03-02T09:08:14.339Z,20.19
2019-03-02T09:09:14.073Z,20.18
2019-03-02T09:10:14.757Z,20.19
2019-03-02T09:11:14.266Z,20.18
2019-03-02T09:12:14.126Z,20.19
2019-03-02T09:13:14.170Z,20.19
2019-03-02T09:14:14.341Z,20.18
2019-03-02T09:15:14.010Z,20.2
2019-03-02T09:16:14.071Z,20.19
2019-03-02T09:17:19.084Z,20.19
2019-03-02T09:18:14.109Z,20.18
2019-03-02T09:19:24.371Z,20.19
2019-03-02T09:20:14.383Z,20.19
2019-03-02T09:21:14.241Z,20.19
2019-03-02T09:22:14.454Z,20.22
2019-03-02T09:23:15.373Z,20.19
2019-03-02T09:24:14.462Z,20.2
2019-03-02T09:25:14.229Z,20.2
2019-03-02T09:26:15.222Z,20.23
2019-03-02T09:27:14.376Z,20.22
2019-03-02T09:28:14.417Z,20.2
2019-03-02T09:29:14.121Z,20.2
2019-03-02T09:30:14.591Z,20.19
2019-03-02T09:31:14.023Z,20.2
2019-03-02T09:32:15.352Z,20.18
2019-03-02T09:33:14.383Z,20.2
2019-03-02T09:34:14.063Z,20.23
2019-03-02T09:35:17.477Z,20.19
2019-03-02T09:36:14.155Z,20.2
2019-03-02T09:37:14.384Z,20.22
2019-03-02T09:38:22.580Z,20.25
2019-03-02T09:39:14.124Z,20.23
2019-03-02T09:40:14.799Z,20.25
2019-03-02T09:41:14.032Z,20.25
2019-03-02T09:42:14.123Z,20.23
2019-03-02T09:43:17.327Z,20.25
2019-03-02T09:44:14.637Z,20.27
2019-03-02T09:45:14.218Z,20.26
2019-03-02T09:46:14.411Z,20.26
2019-03-02T09:47:14.049Z,20.26
2019-03-02T09:48:14.071Z,20.25
2019-03-02T09:49:14.218Z,20.22
2019-03-02T09:50:14.769Z,20.19
2019-03-02T09:51:14.717Z,20.19
2019-03-02T09:52:14.195Z,20.19
2019-03-02T09:53:14.366Z,20.13
2019-03-02T09:54:14.112Z,20.16
2019-03-02T09:55:21.743Z,20.15
2019-03-02T09:56:16.484Z,20.13
2019-03-02T09:57:14.075Z,20.16
2019-03-02T09:58:14.357Z,20.15
2019-03-02T09:59:14.203Z,20.15
2019-03-02T10:00:14.038Z,20.13
2019-03-02T10:01:14.208Z,20.15
2019-03-02T10:02:15.931Z,20.15
2019-03-02T10:03:14.067Z,20.2
2019-03-02T10:04:14.159Z,20.18
2019-03-02T10:05:15.763Z,20.19
2019-03-02T10:06:14.010Z,20.19
2019-03-02T10:07:14.140Z,20.22
2019-03-02T10:08:14.507Z,20.22
2019-03-02T10:09:13.982Z,20.23
2019-03-02T10:10:14.179Z,20.23
2019-03-02T10:11:14.227Z,20.22
2019-03-02T10:12:15.413Z,20.23
2019-03-02T10:13:14.228Z,20.25
2019-03-02T10:14:14.208Z,20.25
2019-03-02T10:15:14.064Z,20.23
2019-03-02T10:16:14.203Z,20.26
2019-03-02T10:17:14.203Z,20.26
2019-03-02T10:18:15.065Z,20.26
2019-03-02T10:19:14.222Z,20.23
2019-03-02T10:20:14.179Z,20.25
2019-03-02T10:21:14.136Z,20.23
2019-03-02T10:22:14.131Z,20.22
2019-03-02T10:23:14.328Z,20.25
2019-03-02T10:24:18.275Z,20.2
2019-03-02T10:25:14.119Z,20.22
2019-03-02T10:26:14.301Z,20.23
2019-03-02T10:27:22.645Z,20.26
2019-03-02T10:28:14.268Z,20.27
2019-03-02T10:29:14.178Z,20.27
2019-03-02T10:30:14.046Z,20.27
2019-03-02T10:31:14.168Z,20.3
2019-03-02T10:32:14.215Z,20.33
2019-03-02T10:33:14.056Z,20.35
2019-03-02T10:34:14.254Z,20.35
2019-03-02T10:35:18.423Z,20.36
2019-03-02T10:36:14.130Z,20.35
2019-03-02T10:37:14.135Z,20.36
2019-03-02T10:38:20.264Z,20.35
2019-03-02T10:39:14.278Z,20.37
2019-03-02T10:40:14.187Z,20.39
2019-03-02T10:41:21.685Z,20.37
2019-03-02T10:42:14.045Z,20.37
2019-03-02T10:43:14.235Z,20.39
2019-03-02T10:44:14.280Z,20.37
2019-03-02T10:45:14.157Z,20.42
2019-03-02T10:46:14.074Z,20.4
2019-03-02T10:47:15.280Z,20.42
2019-03-02T10:48:14.354Z,20.42
2019-03-02T10:49:14.143Z,20.44
2019-03-02T10:50:14.199Z,20.4
2019-03-02T10:51:14.165Z,20.43
2019-03-02T10:52:14.675Z,20.46
2019-03-02T10:53:14.324Z,20.44
2019-03-02T10:54:14.013Z,20.46
2019-03-02T10:55:14.211Z,20.47
2019-03-02T10:56:14.208Z,20.48
2019-03-02T10:57:14.000Z,20.48
2019-03-02T10:58:14.244Z,20.47
2019-03-02T10:59:16.735Z,20.51
2019-03-02T11:00:14.069Z,20.48
2019-03-02T11:01:14.184Z,20.51
2019-03-02T11:02:21.257Z,20.51
2019-03-02T11:03:14.367Z,20.53
2019-03-02T11:04:14.046Z,20.48
2019-03-02T11:05:21.265Z,20.54
2019-03-02T11:06:14.290Z,20.53
2019-03-02T11:07:14.192Z,20.53
2019-03-02T11:08:14.157Z,20.53
2019-03-02T11:09:22.950Z,20.54
2019-03-02T11:10:17.650Z,20.53
2019-03-02T11:11:14.092Z,20.53
2019-03-02T11:12:14.210Z,20.53
2019-03-02T11:13:20.949Z,20.51
2019-03-02T11:14:14.129Z,20.51
2019-03-02T11:15:14.261Z,20.5
2019-03-02T11:16:14.056Z,20.48
2019-03-02T11:17:14.242Z,20.5
2019-03-02T11:18:14.271Z,20.51
2019-03-02T11:19:14.322Z,20.48
2019-03-02T11:20:14.153Z,20.48
2019-03-02T11:21:14.297Z,20.5
2019-03-02T11:22:16.826Z,20.48
2019-03-02T11:23:23.442Z,20.5
2019-03-02T11:24:14.251Z,20.53
2019-03-02T11:25:14.000Z,20.51
2019-03-02T11:26:14.103Z,20.54
2019-03-02T11:27:14.352Z,20.57
2019-03-02T11:28:14.112Z,20.57
2019-03-02T11:29:14.164Z,20.59
2019-03-02T11:30:14.364Z,20.6
2019-03-02T11:31:14.530Z,20.6
2019-03-02T11:32:21.672Z,20.63
2019-03-02T11:33:14.167Z,20.61
2019-03-02T11:34:14.033Z,20.66
2019-03-02T11:35:14.123Z,20.64
2019-03-02T11:36:15.299Z,20.61
2019-03-02T11:37:14.045Z,20.64
2019-03-02T11:38:14.047Z,20.67
2019-03-02T11:39:18.585Z,20.66
2019-03-02T11:40:14.230Z,20.67
2019-03-02T11:41:14.016Z,20.67
2019-03-02T11:42:15.162Z,20.68
2019-03-02T11:43:17.483Z,20.67
2019-03-02T11:44:14.036Z,20.68
2019-03-02T11:45:14.871Z,20.67
2019-03-02T11:46:14.332Z,20.72
2019-03-02T11:47:14.048Z,20.72
2019-03-02T11:48:17.617Z,20.7
2019-03-02T11:49:14.193Z,20.71
2019-03-02T11:50:15.900Z,20.68
2019-03-02T11:51:14.180Z,20.66
2019-03-02T11:52:14.584Z,20.63
2019-03-02T11:53:17.255Z,20.61
2019-03-02T11:54:14.395Z,20.59
2019-03-02T11:55:14.236Z,20.55
2019-03-02T11:56:27.653Z,20.59
2019-03-02T11:57:14.124Z,20.55
2019-03-02T11:58:14.299Z,20.53
2019-03-02T11:59:14.022Z,20.53
2019-03-02T12:00:14.202Z,20.5
2019-03-02T12:01:14.170Z,20.5
2019-03-02T12:02:25.054Z,20.5
2019-03-02T12:03:14.151Z,20.48
2019-03-02T12:04:16.509Z,20.48
2019-03-02T12:05:13.953Z,20.5
2019-03-02T12:06:14.083Z,20.48
2019-03-02T12:07:14.267Z,20.48
2019-03-02T12:08:14.013Z,20.48
2019-03-02T12:09:14.144Z,20.48
2019-03-02T12:10:14.193Z,20.48
2019-03-02T12:11:13.993Z,20.48
2019-03-02T12:12:14.130Z,20.5
2019-03-02T12:13:14.166Z,20.48
2019-03-02T12:14:14.109Z,20.48
2019-03-02T12:15:14.329Z,20.5
2019-03-02T12:16:14.216Z,20.5
2019-03-02T12:17:14.150Z,20.51
2019-03-02T12:18:19.782Z,20.5
2019-03-02T12:19:14.148Z,20.51
2019-03-02T12:20:14.589Z,20.55
2019-03-02T12:21:14.193Z,20.53
2019-03-02T12:22:14.319Z,20.53
2019-03-02T12:23:14.346Z,20.54
2019-03-02T12:24:23.450Z,20.54
2019-03-02T12:25:14.363Z,20.53
2019-03-02T12:26:14.142Z,20.54
2019-03-02T12:27:14.193Z,20.54
2019-03-02T12:28:14.261Z,20.57
2019-03-02T12:29:15.174Z,20.55
2019-03-02T12:30:14.204Z,20.55
2019-03-02T12:31:14.035Z,20.57
2019-03-02T12:32:14.082Z,20.55
2019-03-02T12:33:22.483Z,20.54
2019-03-02T12:34:14.023Z,20.55
2019-03-02T12:35:14.091Z,20.54
2019-03-02T12:36:17.453Z,20.53
2019-03-02T12:37:14.246Z,20.53
2019-03-02T12:38:14.137Z,20.53
2019-03-02T12:39:14.201Z,20.54
2019-03-02T12:40:14.240Z,20.54
2019-03-02T12:41:16.903Z,20.53
2019-03-02T12:42:14.171Z,20.51
2019-03-02T12:43:14.445Z,20.51
2019-03-02T12:44:22.615Z,20.53
2019-03-02T12:45:14.121Z,20.53
2019-03-02T12:46:17.226Z,20.51
2019-03-02T12:47:14.033Z,20.5
2019-03-02T12:48:14.173Z,20.51
2019-03-02T12:49:14.265Z,20.53
2019-03-02T12:50:14.036Z,20.5
2019-03-02T12:51:14.096Z,20.54
2019-03-02T12:52:16.754Z,20.51
2019-03-02T12:53:16.461Z,20.51
2019-03-02T12:54:14.451Z,20.53
2019-03-02T12:55:22.072Z,20.51